Terminal Aerodrome Forecast
Issued by NWS

Home | Current Version | Previous Version | Text Only | Print | Product List | Glossary On
Versions: 1 2 3 4 5 6 7 8 9 10 11 12 13 14 15 16 17
000
FTUS44 KLZK 270500
TAFADF
TAF
KADF 270536Z 2706/2806 00000KT P6SM FEW250
      TEMPO 2710/2712 4SM BR
     FM271700 12006KT P6SM SCT050
     FM280000 00000KT P6SM FEW250=

USA.gov is the U.S. government's official web portal to all federal, state and local government web resources and services.